Juan Jose Castelli, Argentina
Current Conditions -  °F | °C
As of 9:00 AM on Monday 24 Nov 2014 (Local Time) from SARE Reporting Station
Clear Clear  
Wind Chill: 82°   Ceiling: Unl
Heat Index: 84°   Visibility: 6mi
Dew Point: 64°   Wind: 13mph
Humidity: 54%   Direction: 20°NNE
Pressure: 29.77"   Gusts: NA
Location:  25.95°S, 60.62°W
Report Text: SARE 241200Z 02011KT CAVOK 28/18 Q1008
Loading
Personal Weather Stations






























Interactive Weather Map New forecast layout! Learn more

10-Day Weather Forecast

Advertisements
Track Severe Weather on mobile